Time;durP1;ratioP1;P1;durP2;ratioP2;P2;SDS_P1;SDS_P2;PMS_P1;PMS_P2;Temp;Humidity;BMP_temperature;BMP_pressure;BME280_temperature;BME280_humidity;BME280_pressure;Samples;Min_cycle;Max_cycle;Signal;HPM_P1;HPM_P2
2022/03/25 00:02:17;;;;;;;21.00;12.43;;;;;;;;;;5089731;28;20622;-75
2022/03/25 00:04:42;;;;;;;19.90;12.57;;;;;;;;;;5091536;28;20325;-75
2022/03/25 00:07:10;;;;;;;20.07;12.53;;;;;;;;;;5091013;28;20185;-75
2022/03/25 00:09:36;;;;;;;21.73;12.43;;;;;;;;;;5080030;28;20179;-75
2022/03/25 00:12:03;;;;;;;20.77;12.03;;;;;;;;;;5090484;28;20229;-75
2022/03/25 00:14:28;;;;;;;20.10;11.53;;;;;;;;;;5091437;28;20173;-75
2022/03/25 00:16:54;;;;;;;21.27;12.57;;;;;;;;;;5093290;28;20189;-75
2022/03/25 00:19:19;;;;;;;21.87;12.63;;;;;;;;;;5090458;28;20602;-75
2022/03/25 00:21:44;;;;;;;19.80;12.63;;;;;;;;;;5094611;28;20176;-75
2022/03/25 00:24:09;;;;;;;23.17;13.23;;;;;;;;;;5089989;28;20270;-75
2022/03/25 00:26:34;;;;;;;19.93;13.13;;;;;;;;;;5093787;28;20185;-74
2022/03/25 00:29:00;;;;;;;19.77;11.43;;;;;;;;;;5089652;28;20207;-74
2022/03/25 00:31:25;;;;;;;20.70;12.27;;;;;;;;;;5094016;28;20201;-75
2022/03/25 00:33:51;;;;;;;23.00;13.23;;;;;;;;;;5090045;28;20224;-75
2022/03/25 00:36:18;;;;;;;19.67;12.97;;;;;;;;;;5097459;28;20199;-75
2022/03/25 00:38:43;;;;;;;20.40;11.93;;;;;;;;;;5096162;28;20259;-75
2022/03/25 00:41:11;;;;;;;23.97;13.60;;;;;;;;;;5089350;28;20191;-75
2022/03/25 00:43:36;;;;;;;19.27;11.20;;;;;;;;;;5086729;28;20189;-75
2022/03/25 00:46:02;;;;;;;21.63;12.53;;;;;;;;;;5101942;28;20176;-75
2022/03/25 00:48:27;;;;;;;23.90;13.13;;;;;;;;;;5090816;28;20187;-75
2022/03/25 00:50:53;;;;;;;20.63;12.70;;;;;;;;;;5086104;28;20174;-75
2022/03/25 00:53:19;;;;;;;21.33;13.00;;;;;;;;;;5089661;28;20205;-75
2022/03/25 00:55:44;;;;;;;21.00;13.00;;;;;;;;;;5083569;28;20170;-75
2022/03/25 00:58:10;;;;;;;24.40;13.37;;;;;;;;;;5095444;28;20176;-75
2022/03/25 01:00:35;;;;;;;20.00;12.80;;;;;;;;;;5087517;28;20191;-75
2022/03/25 01:03:00;;;;;;;22.47;13.63;;;;;;;;;;5089708;28;20231;-75
2022/03/25 01:05:25;;;;;;;24.37;12.23;;;;;;;;;;5087757;28;20208;-75
2022/03/25 01:07:51;;;;;;;21.47;12.53;;;;;;;;;;5099056;28;20436;-75
2022/03/25 01:10:16;;;;;;;20.90;12.20;;;;;;;;;;5088755;28;20245;-75
2022/03/25 01:12:41;;;;;;;19.60;12.73;;;;;;;;;;5082364;28;20225;-75
2022/03/25 01:15:07;;;;;;;20.67;12.70;;;;;;;;;;5086889;28;20196;-75
2022/03/25 01:17:32;;;;;;;19.43;12.80;;;;;;;;;;5087078;28;20257;-75
2022/03/25 01:19:57;;;;;;;21.37;13.33;;;;;;;;;;5087860;28;20173;-75
2022/03/25 01:22:23;;;;;;;23.30;13.00;;;;;;;;;;5092362;28;20204;-75
2022/03/25 01:24:48;;;;;;;22.33;13.33;;;;;;;;;;5099448;28;20184;-75
2022/03/25 01:27:13;;;;;;;22.07;12.67;;;;;;;;;;5087196;28;20181;-75
2022/03/25 01:29:39;;;;;;;19.57;13.43;;;;;;;;;;5089952;28;20225;-75
2022/03/25 01:32:06;;;;;;;23.33;12.43;;;;;;;;;;5087822;28;20293;-75
2022/03/25 01:34:33;;;;;;;20.13;13.03;;;;;;;;;;5079541;28;20168;-75
2022/03/25 01:36:58;;;;;;;23.90;13.37;;;;;;;;;;5086140;28;20181;-75
2022/03/25 01:39:23;;;;;;;22.87;13.27;;;;;;;;;;5087504;28;20315;-75
2022/03/25 01:41:49;;;;;;;21.27;12.67;;;;;;;;;;5090387;28;20181;-75
2022/03/25 01:44:14;;;;;;;23.00;12.93;;;;;;;;;;5089507;28;20184;-75
2022/03/25 01:46:39;;;;;;;24.30;13.60;;;;;;;;;;5084495;28;20520;-75
2022/03/25 01:49:05;;;;;;;23.43;12.90;;;;;;;;;;5085787;28;20180;-75
2022/03/25 01:51:34;;;;;;;24.97;14.50;;;;;;;;;;5084602;28;20284;-75
2022/03/25 01:54:03;;;;;;;20.03;13.23;;;;;;;;;;5085346;28;20180;-75
2022/03/25 01:56:29;;;;;;;24.00;13.83;;;;;;;;;;5085069;28;20198;-75
2022/03/25 01:58:54;;;;;;;20.37;13.13;;;;;;;;;;5093890;28;20173;-75
2022/03/25 02:01:19;;;;;;;26.63;14.70;;;;;;;;;;5078030;28;20193;-75
2022/03/25 02:03:44;;;;;;;21.77;12.33;;;;;;;;;;5092002;28;20210;-75
2022/03/25 02:06:10;;;;;;;21.30;13.40;;;;;;;;;;5088624;28;20180;-75
2022/03/25 02:08:35;;;;;;;23.47;12.30;;;;;;;;;;5083869;28;20207;-75
2022/03/25 02:11:00;;;;;;;23.50;12.33;;;;;;;;;;5088200;28;20180;-75
2022/03/25 02:13:25;;;;;;;25.43;13.37;;;;;;;;;;5089288;28;20249;-75
2022/03/25 02:15:52;;;;;;;24.07;12.20;;;;;;;;;;5091145;28;20207;-75
2022/03/25 02:18:20;;;;;;;19.60;12.13;;;;;;;;;;5087216;28;20180;-75
2022/03/25 02:20:47;;;;;;;20.83;12.40;;;;;;;;;;5086144;28;20179;-75
2022/03/25 02:23:12;;;;;;;21.83;12.90;;;;;;;;;;5086556;28;20187;-75
2022/03/25 02:25:38;;;;;;;23.33;13.47;;;;;;;;;;5085240;28;20271;-75
2022/03/25 02:28:04;;;;;;;20.23;12.37;;;;;;;;;;5084381;28;20203;-75
2022/03/25 02:30:30;;;;;;;23.40;12.43;;;;;;;;;;5082666;28;20187;-75
2022/03/25 02:33:01;;;;;;;24.93;13.90;;;;;;;;;;5087453;28;20287;-75
2022/03/25 02:35:36;;;;;;;21.27;12.53;;;;;;;;;;5088082;28;20177;-75
2022/03/25 02:38:01;;;;;;;22.43;12.83;;;;;;;;;;5085607;28;20210;-75
2022/03/25 02:40:26;;;;;;;21.07;13.47;;;;;;;;;;5086031;28;20181;-75
2022/03/25 02:42:52;;;;;;;22.70;13.10;;;;;;;;;;5084247;28;20180;-75
2022/03/25 02:45:20;;;;;;;22.17;13.30;;;;;;;;;;5086952;28;20184;-75
2022/03/25 02:47:46;;;;;;;22.23;12.70;;;;;;;;;;5088867;28;20202;-75
2022/03/25 02:50:11;;;;;;;20.73;12.63;;;;;;;;;;5082904;28;20179;-75
2022/03/25 02:52:37;;;;;;;20.80;12.40;;;;;;;;;;5087387;28;20211;-75
2022/03/25 02:55:02;;;;;;;23.17;13.73;;;;;;;;;;5085203;28;20211;-75
2022/03/25 02:57:27;;;;;;;22.77;13.17;;;;;;;;;;5087091;28;20186;-75
2022/03/25 02:59:52;;;;;;;22.33;13.50;;;;;;;;;;5085284;28;20180;-75
2022/03/25 03:02:18;;;;;;;28.40;13.73;;;;;;;;;;5088295;28;20185;-75
2022/03/25 03:04:43;;;;;;;23.77;14.30;;;;;;;;;;5081945;28;20204;-75
2022/03/25 03:07:08;;;;;;;25.43;13.60;;;;;;;;;;5084181;28;20240;-74
2022/03/25 03:09:33;;;;;;;23.03;12.90;;;;;;;;;;5088581;28;20183;-75
2022/03/25 03:11:58;;;;;;;24.83;14.63;;;;;;;;;;5089815;28;20227;-75
2022/03/25 03:14:24;;;;;;;19.70;13.03;;;;;;;;;;5097583;28;20180;-75
2022/03/25 03:16:49;;;;;;;23.57;13.77;;;;;;;;;;5086125;28;20169;-75
2022/03/25 03:19:15;;;;;;;22.63;14.10;;;;;;;;;;5088917;28;20281;-75
2022/03/25 03:21:40;;;;;;;22.03;13.17;;;;;;;;;;5084667;28;20206;-75
2022/03/25 03:24:05;;;;;;;21.60;13.43;;;;;;;;;;5080375;28;20197;-75
2022/03/25 03:26:30;;;;;;;24.37;14.13;;;;;;;;;;5093569;28;20209;-75
2022/03/25 03:28:55;;;;;;;25.67;14.30;;;;;;;;;;5087926;28;20185;-75
2022/03/25 03:31:21;;;;;;;20.97;13.30;;;;;;;;;;5095495;28;20182;-75
2022/03/25 03:33:46;;;;;;;22.27;13.17;;;;;;;;;;5083768;28;20226;-75
2022/03/25 03:36:11;;;;;;;20.57;13.40;;;;;;;;;;5085836;28;20210;-74
2022/03/25 03:38:36;;;;;;;23.97;14.27;;;;;;;;;;5087468;28;20200;-74
2022/03/25 03:41:01;;;;;;;22.57;12.67;;;;;;;;;;5083044;28;20224;-75
2022/03/25 03:43:26;;;;;;;25.13;13.97;;;;;;;;;;5080107;28;20221;-75
2022/03/25 03:45:52;;;;;;;23.67;15.87;;;;;;;;;;5088010;28;20200;-75
2022/03/25 03:48:17;;;;;;;22.33;13.23;;;;;;;;;;5087010;28;20184;-75
2022/03/25 03:50:42;;;;;;;24.03;14.77;;;;;;;;;;5078991;28;20178;-74
2022/03/25 03:53:07;;;;;;;23.17;14.13;;;;;;;;;;5083960;28;20210;-75
2022/03/25 03:55:33;;;;;;;19.77;13.30;;;;;;;;;;5085900;28;20395;-74
2022/03/25 03:57:58;;;;;;;22.10;13.67;;;;;;;;;;5082006;28;20230;-75
2022/03/25 04:00:26;;;;;;;26.37;15.67;;;;;;;;;;5081983;28;20212;-74
2022/03/25 04:02:52;;;;;;;27.20;15.47;;;;;;;;;;5088122;28;20186;-75
2022/03/25 04:05:17;;;;;;;24.53;14.73;;;;;;;;;;5084413;28;20196;-75
2022/03/25 04:07:46;;;;;;;21.43;14.13;;;;;;;;;;5083610;28;20210;-75
2022/03/25 04:10:12;;;;;;;24.30;13.60;;;;;;;;;;5087363;28;20191;-75
2022/03/25 04:12:38;;;;;;;23.63;13.50;;;;;;;;;;5083254;28;20241;-75
2022/03/25 04:15:04;;;;;;;22.60;13.60;;;;;;;;;;5083885;28;20208;-75
2022/03/25 04:17:29;;;;;;;27.27;14.23;;;;;;;;;;5090763;28;20204;-75
2022/03/25 04:19:54;;;;;;;23.67;13.77;;;;;;;;;;5087970;28;20190;-74
2022/03/25 04:22:19;;;;;;;23.90;14.60;;;;;;;;;;5095987;28;20180;-75
2022/03/25 04:24:44;;;;;;;21.43;13.00;;;;;;;;;;5088844;28;20174;-75
2022/03/25 04:27:10;;;;;;;24.37;14.77;;;;;;;;;;5090554;28;20172;-75
2022/03/25 04:29:35;;;;;;;22.13;14.17;;;;;;;;;;5087405;28;20177;-75
2022/03/25 04:32:01;;;;;;;29.60;15.47;;;;;;;;;;5088628;28;20197;-75
2022/03/25 04:34:26;;;;;;;27.03;14.57;;;;;;;;;;5088724;28;20183;-75
2022/03/25 04:36:51;;;;;;;24.20;13.47;;;;;;;;;;5088336;28;20175;-75
2022/03/25 04:39:16;;;;;;;28.00;15.37;;;;;;;;;;5087402;28;20172;-75
2022/03/25 04:41:41;;;;;;;26.83;15.73;;;;;;;;;;5083577;28;20238;-75
2022/03/25 04:44:07;;;;;;;26.47;15.30;;;;;;;;;;5088808;28;20278;-75
2022/03/25 04:46:34;;;;;;;27.33;14.50;;;;;;;;;;5093978;28;20177;-75
2022/03/25 04:48:59;;;;;;;29.33;15.83;;;;;;;;;;5087038;28;20192;-75
2022/03/25 04:51:24;;;;;;;27.67;14.47;;;;;;;;;;5086788;28;20188;-75
2022/03/25 04:53:49;;;;;;;26.47;13.97;;;;;;;;;;5087018;28;20184;-75
2022/03/25 04:56:15;;;;;;;24.80;14.60;;;;;;;;;;5097973;28;20182;-75
2022/03/25 04:58:40;;;;;;;26.57;14.13;;;;;;;;;;5088605;28;20168;-75
2022/03/25 05:01:05;;;;;;;29.00;16.07;;;;;;;;;;5089929;28;20182;-75
2022/03/25 05:03:31;;;;;;;24.93;14.03;;;;;;;;;;5094987;28;20171;-75
2022/03/25 05:05:56;;;;;;;26.20;13.50;;;;;;;;;;5088151;28;20180;-75
2022/03/25 05:08:21;;;;;;;26.20;16.00;;;;;;;;;;5086728;28;20191;-75
2022/03/25 05:10:46;;;;;;;26.03;15.90;;;;;;;;;;5089041;28;20417;-75
2022/03/25 05:13:12;;;;;;;25.27;14.60;;;;;;;;;;5089668;28;20232;-75
2022/03/25 05:15:38;;;;;;;27.80;15.07;;;;;;;;;;5095710;28;20228;-75
2022/03/25 05:18:03;;;;;;;24.37;14.07;;;;;;;;;;5087412;28;20183;-75
2022/03/25 05:20:28;;;;;;;26.27;15.27;;;;;;;;;;5086249;28;20184;-75
2022/03/25 05:22:53;;;;;;;22.90;13.17;;;;;;;;;;5096579;28;20311;-75
2022/03/25 05:25:19;;;;;;;25.80;13.80;;;;;;;;;;5086108;28;20188;-75
2022/03/25 05:27:57;;;;;;;25.67;15.27;;;;;;;;;;5090353;28;20204;-75
2022/03/25 05:30:25;;;;;;;24.87;14.50;;;;;;;;;;5086632;28;20185;-75
2022/03/25 05:32:50;;;;;;;25.33;13.90;;;;;;;;;;5085846;28;20211;-75
2022/03/25 05:35:16;;;;;;;24.70;14.23;;;;;;;;;;5086338;28;20179;-75
2022/03/25 05:37:41;;;;;;;25.33;13.13;;;;;;;;;;5083961;28;20213;-75
2022/03/25 05:40:08;;;;;;;21.27;11.90;;;;;;;;;;5085544;28;20207;-75
2022/03/25 05:42:33;;;;;;;23.50;14.00;;;;;;;;;;5084694;28;20182;-74
2022/03/25 05:44:58;;;;;;;24.67;13.63;;;;;;;;;;5093416;28;20212;-75
2022/03/25 05:47:24;;;;;;;22.87;13.43;;;;;;;;;;5085517;28;20180;-75
2022/03/25 05:49:49;;;;;;;19.43;12.43;;;;;;;;;;5082326;28;20314;-75
2022/03/25 05:52:14;;;;;;;27.77;15.33;;;;;;;;;;5080466;28;20526;-75
2022/03/25 05:54:40;;;;;;;27.13;15.33;;;;;;;;;;5085427;28;20268;-75
2022/03/25 05:57:05;;;;;;;26.33;14.20;;;;;;;;;;5092385;28;20176;-75
2022/03/25 05:59:31;;;;;;;20.20;12.80;;;;;;;;;;5084669;28;20181;-78
2022/03/25 06:01:56;;;;;;;19.83;12.67;;;;;;;;;;5084108;28;20188;-75
2022/03/25 06:04:21;;;;;;;22.60;13.53;;;;;;;;;;5086901;28;20207;-75
2022/03/25 06:06:47;;;;;;;28.17;13.35;;;;;;;;;;5090456;28;20184;-75
2022/03/25 06:09:12;;;;;;;20.77;12.90;;;;;;;;;;5090649;28;20241;-75
2022/03/25 06:11:37;;;;;;;21.33;13.03;;;;;;;;;;5088679;28;20227;-75
2022/03/25 06:14:02;;;;;;;36.13;32.47;;;;;;;;;;5087571;28;20198;-75
2022/03/25 06:16:27;;;;;;;24.00;14.17;;;;;;;;;;5100207;28;20209;-75
2022/03/25 06:18:53;;;;;;;25.80;13.53;;;;;;;;;;5083004;28;20271;-74
2022/03/25 06:21:20;;;;;;;22.07;13.00;;;;;;;;;;5092004;28;20212;-75
2022/03/25 06:23:45;;;;;;;18.13;11.57;;;;;;;;;;5081600;28;20471;-75
2022/03/25 06:26:11;;;;;;;31.70;14.80;;;;;;;;;;5086128;28;20176;-75
2022/03/25 06:28:36;;;;;;;23.40;14.33;;;;;;;;;;5081884;28;20176;-75
2022/03/25 06:31:01;;;;;;;19.43;12.40;;;;;;;;;;5085688;28;20264;-75
2022/03/25 06:33:26;;;;;;;23.83;13.97;;;;;;;;;;5088538;28;20232;-75
2022/03/25 06:35:51;;;;;;;21.27;13.27;;;;;;;;;;5091714;28;20175;-75
2022/03/25 06:38:18;;;;;;;20.87;12.10;;;;;;;;;;5107995;27;20173;-75
2022/03/25 06:40:43;;;;;;;22.87;12.80;;;;;;;;;;5086958;28;20178;-75
2022/03/25 06:43:08;;;;;;;23.13;14.07;;;;;;;;;;5087239;28;20175;-75
2022/03/25 06:45:34;;;;;;;21.90;13.27;;;;;;;;;;5088114;28;20187;-75
2022/03/25 06:47:59;;;;;;;24.77;14.00;;;;;;;;;;5088023;28;20243;-75
2022/03/25 06:50:24;;;;;;;25.87;13.67;;;;;;;;;;5091635;28;20180;-75
2022/03/25 06:52:50;;;;;;;25.47;15.07;;;;;;;;;;5082379;28;20247;-75
2022/03/25 06:55:16;;;;;;;24.50;14.80;;;;;;;;;;5087775;28;20271;-76
2022/03/25 06:57:41;;;;;;;26.70;13.40;;;;;;;;;;5083842;28;20178;-75
2022/03/25 07:00:11;;;;;;;22.00;13.53;;;;;;;;;;5092300;28;20179;-75
2022/03/25 07:02:37;;;;;;;21.40;13.40;;;;;;;;;;5090042;28;20171;-75
2022/03/25 07:05:02;;;;;;;23.03;12.77;;;;;;;;;;5085484;28;20227;-75
2022/03/25 07:07:27;;;;;;;22.30;13.27;;;;;;;;;;5089492;28;20204;-75
2022/03/25 07:09:56;;;;;;;21.53;13.87;;;;;;;;;;5091612;28;20188;-75
2022/03/25 07:12:22;;;;;;;23.20;14.83;;;;;;;;;;5088548;28;20229;-75
2022/03/25 07:14:47;;;;;;;20.43;12.57;;;;;;;;;;5094865;28;20209;-75
2022/03/25 07:17:12;;;;;;;24.00;13.53;;;;;;;;;;5096322;28;20211;-75
2022/03/25 07:19:37;;;;;;;23.63;14.77;;;;;;;;;;5082124;28;20180;-75
2022/03/25 07:22:03;;;;;;;21.20;13.13;;;;;;;;;;5089241;28;20235;-75
2022/03/25 07:24:29;;;;;;;23.07;14.50;;;;;;;;;;5082041;28;20274;-75
2022/03/25 07:26:54;;;;;;;24.80;13.37;;;;;;;;;;5089912;28;20522;-75
2022/03/25 07:29:19;;;;;;;23.23;14.60;;;;;;;;;;5094904;28;20180;-75
2022/03/25 07:31:44;;;;;;;23.70;14.17;;;;;;;;;;5093308;28;20223;-75
2022/03/25 07:34:10;;;;;;;21.93;14.83;;;;;;;;;;5087202;28;20169;-75
2022/03/25 07:36:35;;;;;;;25.83;14.03;;;;;;;;;;5089359;28;20212;-75
2022/03/25 07:39:01;;;;;;;23.70;15.10;;;;;;;;;;5089967;28;20188;-75
2022/03/25 07:41:28;;;;;;;24.17;13.77;;;;;;;;;;5089438;28;20173;-75
2022/03/25 07:43:53;;;;;;;24.63;15.13;;;;;;;;;;5091878;28;20180;-75
2022/03/25 07:46:18;;;;;;;25.27;13.67;;;;;;;;;;5091048;28;20184;-75
2022/03/25 07:48:43;;;;;;;28.20;15.50;;;;;;;;;;5090245;28;20208;-75
2022/03/25 07:51:09;;;;;;;22.37;15.50;;;;;;;;;;5087467;28;20177;-75
2022/03/25 07:53:34;;;;;;;25.70;14.60;;;;;;;;;;5080978;28;20201;-75
2022/03/25 07:56:00;;;;;;;25.70;15.30;;;;;;;;;;5092363;28;20212;-73
2022/03/25 07:58:26;;;;;;;28.03;16.23;;;;;;;;;;5095744;28;20202;-73
2022/03/25 08:00:51;;;;;;;24.07;15.53;;;;;;;;;;5091341;28;20165;-73
2022/03/25 08:03:16;;;;;;;24.13;15.67;;;;;;;;;;5099733;28;20187;-73
2022/03/25 08:05:42;;;;;;;29.60;16.90;;;;;;;;;;5085721;28;20181;-73
2022/03/25 08:08:08;;;;;;;25.30;17.97;;;;;;;;;;5091755;28;20201;-73
2022/03/25 08:10:33;;;;;;;32.30;18.10;;;;;;;;;;5097868;28;20172;-73
2022/03/25 08:12:59;;;;;;;26.47;16.87;;;;;;;;;;5092942;28;20235;-73
2022/03/25 08:15:25;;;;;;;24.97;15.23;;;;;;;;;;5098276;28;20308;-73
2022/03/25 08:17:55;;;;;;;25.23;17.17;;;;;;;;;;5095719;28;21180;-73
2022/03/25 08:20:35;;;;;;;25.00;17.50;;;;;;;;;;5098125;28;20172;-73
2022/03/25 08:23:01;;;;;;;25.70;17.07;;;;;;;;;;5086038;28;20247;-73
2022/03/25 08:28:10;;;;;;;23.73;15.10;;;;;;;;;;5095252;28;20398;-72
2022/03/25 08:30:36;;;;;;;23.77;16.23;;;;;;;;;;5090800;28;20177;-73
2022/03/25 08:33:02;;;;;;;24.53;15.83;;;;;;;;;;5090989;28;20208;-73
2022/03/25 08:35:27;;;;;;;24.67;15.73;;;;;;;;;;5091691;28;20186;-73
2022/03/25 08:37:53;;;;;;;25.90;15.50;;;;;;;;;;5091288;28;20182;-73
2022/03/25 08:40:19;;;;;;;25.73;16.27;;;;;;;;;;5087927;28;20183;-73
2022/03/25 08:42:44;;;;;;;22.37;14.20;;;;;;;;;;5092048;28;20189;-73
2022/03/25 08:45:13;;;;;;;25.70;15.90;;;;;;;;;;5090016;28;20241;-73
2022/03/25 08:47:38;;;;;;;21.57;15.83;;;;;;;;;;5084815;28;20184;-73
2022/03/25 08:50:04;;;;;;;27.27;16.87;;;;;;;;;;5091648;28;20182;-73
2022/03/25 08:52:29;;;;;;;24.80;17.97;;;;;;;;;;5093734;28;20260;-73
2022/03/25 08:54:54;;;;;;;25.17;17.40;;;;;;;;;;5088713;28;20185;-72
2022/03/25 08:57:19;;;;;;;26.70;15.77;;;;;;;;;;5088839;28;20188;-73
2022/03/25 08:59:44;;;;;;;24.10;16.17;;;;;;;;;;5090555;28;20251;-73
2022/03/25 09:02:10;;;;;;;23.37;15.93;;;;;;;;;;5091043;28;20198;-73
2022/03/25 09:04:35;;;;;;;27.00;17.63;;;;;;;;;;5082717;28;20208;-73
2022/03/25 09:07:00;;;;;;;23.73;16.73;;;;;;;;;;5090078;28;20187;-73
2022/03/25 09:09:29;;;;;;;26.83;15.53;;;;;;;;;;5083796;28;20180;-73
2022/03/25 09:11:54;;;;;;;21.93;14.90;;;;;;;;;;5092046;28;20264;-73
2022/03/25 09:14:20;;;;;;;22.23;15.20;;;;;;;;;;5091773;28;20219;-73
2022/03/25 09:16:45;;;;;;;21.40;14.20;;;;;;;;;;5091231;28;20180;-73
2022/03/25 09:19:10;;;;;;;22.50;14.03;;;;;;;;;;5085678;28;20222;-72
2022/03/25 09:21:35;;;;;;;23.00;15.13;;;;;;;;;;5084604;28;20180;-73
2022/03/25 09:24:00;;;;;;;23.83;16.23;;;;;;;;;;5091394;28;20179;-73
2022/03/25 09:26:26;;;;;;;20.20;14.43;;;;;;;;;;5085623;28;20581;-73
2022/03/25 09:28:51;;;;;;;20.93;14.90;;;;;;;;;;5094806;28;20177;-73
2022/03/25 09:31:16;;;;;;;22.13;14.50;;;;;;;;;;5086044;28;20181;-73
2022/03/25 09:33:42;;;;;;;19.20;14.43;;;;;;;;;;5090176;28;20203;-73
2022/03/25 09:36:07;;;;;;;21.07;15.53;;;;;;;;;;5083008;28;20189;-73
2022/03/25 09:38:32;;;;;;;26.00;16.00;;;;;;;;;;5093442;28;20173;-73
2022/03/25 09:40:58;;;;;;;22.30;15.30;;;;;;;;;;5086270;28;20185;-73
2022/03/25 09:43:24;;;;;;;21.93;16.13;;;;;;;;;;5085383;28;20260;-73
2022/03/25 09:45:49;;;;;;;21.70;13.80;;;;;;;;;;5087490;28;20189;-73
2022/03/25 09:48:14;;;;;;;20.50;14.90;;;;;;;;;;5084585;28;20176;-73
2022/03/25 09:50:40;;;;;;;20.33;14.80;;;;;;;;;;5083607;28;20177;-73
2022/03/25 09:53:06;;;;;;;22.33;16.83;;;;;;;;;;5090881;28;20299;-73
2022/03/25 09:55:32;;;;;;;22.13;16.43;;;;;;;;;;5091321;28;20181;-73
2022/03/25 09:57:57;;;;;;;20.17;15.10;;;;;;;;;;5090325;28;20227;-73
2022/03/25 10:00:23;;;;;;;20.57;14.70;;;;;;;;;;5090740;28;20178;-73
2022/03/25 10:02:48;;;;;;;20.75;16.30;;;;;;;;;;5091477;28;20197;-73
2022/03/25 10:05:15;;;;;;;20.73;15.50;;;;;;;;;;5083873;28;20206;-73
2022/03/25 10:07:43;;;;;;;25.30;16.40;;;;;;;;;;5095303;28;20175;-73
2022/03/25 10:10:08;;;;;;;21.83;15.63;;;;;;;;;;5096710;28;20215;-73
2022/03/25 10:12:34;;;;;;;26.60;17.00;;;;;;;;;;5088573;28;20254;-73
2022/03/25 10:15:11;;;;;;;21.30;14.63;;;;;;;;;;5102260;28;20274;-73
2022/03/25 10:17:46;;;;;;;22.90;15.70;;;;;;;;;;5093901;28;20199;-73
2022/03/25 10:20:11;;;;;;;25.57;16.63;;;;;;;;;;5085519;28;20395;-73
2022/03/25 10:22:37;;;;;;;21.80;15.43;;;;;;;;;;5091531;28;20181;-73
2022/03/25 10:25:09;;;;;;;21.70;15.70;;;;;;;;;;5089824;28;20186;-73
2022/03/25 10:27:34;;;;;;;24.90;16.67;;;;;;;;;;5090064;28;20179;-73
2022/03/25 10:30:01;;;;;;;20.20;15.10;;;;;;;;;;5093022;28;20186;-73
2022/03/25 10:32:26;;;;;;;24.07;15.97;;;;;;;;;;5087757;28;20278;-73
2022/03/25 10:35:09;;;;;;;20.20;14.03;;;;;;;;;;5083715;28;20231;-73
2022/03/25 10:37:34;;;;;;;24.17;16.63;;;;;;;;;;5088482;28;20167;-73
2022/03/25 10:40:00;;;;;;;22.80;14.60;;;;;;;;;;5085253;28;20264;-73
2022/03/25 10:42:25;;;;;;;25.17;17.00;;;;;;;;;;5099399;28;20211;-73
2022/03/25 10:44:50;;;;;;;28.47;18.80;;;;;;;;;;5085974;28;20187;-73
2022/03/25 10:47:15;;;;;;;24.47;16.90;;;;;;;;;;5084898;28;20189;-73
2022/03/25 10:49:43;;;;;;;21.77;15.77;;;;;;;;;;5085172;28;20331;-73
2022/03/25 10:52:30;;;;;;;20.43;15.03;;;;;;;;;;5083394;28;20289;-73
2022/03/25 10:55:13;;;;;;;20.67;14.03;;;;;;;;;;5088426;28;20232;-73
2022/03/25 10:57:54;;;;;;;22.00;15.37;;;;;;;;;;5085022;28;20200;-73
2022/03/25 11:00:20;;;;;;;25.37;17.33;;;;;;;;;;5091957;28;20172;-73
2022/03/25 11:02:47;;;;;;;24.97;17.13;;;;;;;;;;5087954;28;20184;-73
2022/03/25 11:05:12;;;;;;;22.20;14.77;;;;;;;;;;5087539;28;20200;-72
2022/03/25 11:07:39;;;;;;;23.83;15.00;;;;;;;;;;5084280;28;20212;-73
2022/03/25 11:10:05;;;;;;;27.37;16.63;;;;;;;;;;5087816;28;20174;-73
2022/03/25 11:12:30;;;;;;;26.33;16.00;;;;;;;;;;5087004;28;20220;-73
2022/03/25 11:14:58;;;;;;;24.73;18.50;;;;;;;;;;5084829;28;20192;-73
2022/03/25 11:17:26;;;;;;;23.10;15.53;;;;;;;;;;5095432;28;20260;-73
2022/03/25 11:19:51;;;;;;;24.07;15.20;;;;;;;;;;5086308;28;20248;-72
2022/03/25 11:22:17;;;;;;;27.23;18.47;;;;;;;;;;5088171;28;20293;-73
2022/03/25 11:24:52;;;;;;;24.57;16.53;;;;;;;;;;5090706;28;20177;-73
2022/03/25 11:27:17;;;;;;;24.17;17.33;;;;;;;;;;5087524;28;20194;-73
2022/03/25 11:29:44;;;;;;;25.17;16.93;;;;;;;;;;5087934;28;20177;-73
2022/03/25 11:32:11;;;;;;;23.47;16.80;;;;;;;;;;5087943;28;20257;-73
2022/03/25 11:34:45;;;;;;;20.77;13.67;;;;;;;;;;5091357;28;20643;-73
2022/03/25 11:37:17;;;;;;;25.90;16.50;;;;;;;;;;5094387;28;20244;-73
2022/03/25 11:39:42;;;;;;;23.83;16.27;;;;;;;;;;5092187;28;20195;-73
2022/03/25 11:42:27;;;;;;;23.83;16.10;;;;;;;;;;5092802;28;20251;-73
2022/03/25 11:45:12;;;;;;;26.73;18.27;;;;;;;;;;5087873;28;20179;-73
2022/03/25 11:47:38;;;;;;;20.50;14.83;;;;;;;;;;5089338;28;20184;-73
2022/03/25 11:50:23;;;;;;;19.60;14.33;;;;;;;;;;5092605;28;20232;-73
2022/03/25 11:52:48;;;;;;;22.00;14.33;;;;;;;;;;5092318;28;20212;-73
2022/03/25 11:55:13;;;;;;;20.30;15.37;;;;;;;;;;5092676;28;20184;-73
2022/03/25 11:57:38;;;;;;;22.40;16.20;;;;;;;;;;5090089;28;20181;-73
2022/03/25 12:00:11;;;;;;;22.70;16.27;;;;;;;;;;5084558;28;20231;-73
2022/03/25 12:02:37;;;;;;;20.87;14.77;;;;;;;;;;5088310;28;20236;-73
2022/03/25 12:05:04;;;;;;;21.53;15.37;;;;;;;;;;5089648;28;20602;-73
2022/03/25 12:07:29;;;;;;;21.37;12.80;;;;;;;;;;5086169;28;20176;-73
2022/03/25 12:09:54;;;;;;;21.93;15.47;;;;;;;;;;5093459;28;20209;-73
2022/03/25 12:12:39;;;;;;;20.80;15.67;;;;;;;;;;5099735;28;20224;-73
2022/03/25 12:15:06;;;;;;;20.93;15.43;;;;;;;;;;5090872;28;20188;-73
2022/03/25 12:17:31;;;;;;;20.70;15.67;;;;;;;;;;5089755;28;20202;-73
2022/03/25 12:19:56;;;;;;;21.90;16.13;;;;;;;;;;5084552;28;20180;-73
2022/03/25 12:22:21;;;;;;;23.83;15.17;;;;;;;;;;5100534;28;20178;-73
2022/03/25 12:24:50;;;;;;;23.57;15.53;;;;;;;;;;5091020;28;20308;-73
2022/03/25 12:27:16;;;;;;;24.53;16.83;;;;;;;;;;5087549;28;20191;-73
2022/03/25 12:29:42;;;;;;;19.90;14.73;;;;;;;;;;5091472;28;20174;-73
2022/03/25 12:32:09;;;;;;;23.17;16.33;;;;;;;;;;5097924;28;20192;-73
2022/03/25 12:34:40;;;;;;;22.67;15.53;;;;;;;;;;5086130;28;20209;-73
2022/03/25 12:37:06;;;;;;;19.50;16.47;;;;;;;;;;5090468;28;20177;-73
2022/03/25 12:39:31;;;;;;;22.27;16.50;;;;;;;;;;5089950;28;20203;-73
2022/03/25 12:41:56;;;;;;;21.90;16.23;;;;;;;;;;5086921;28;20208;-73
2022/03/25 12:44:26;;;;;;;20.80;15.27;;;;;;;;;;5096912;28;20212;-73
2022/03/25 12:46:52;;;;;;;22.17;16.73;;;;;;;;;;5090000;28;20180;-73
2022/03/25 12:49:17;;;;;;;23.47;17.23;;;;;;;;;;5101091;28;20254;-73
2022/03/25 12:51:53;;;;;;;25.53;15.83;;;;;;;;;;5081978;28;20180;-73
2022/03/25 12:54:18;;;;;;;23.00;14.47;;;;;;;;;;5081266;28;20178;-70
2022/03/25 12:56:54;;;;;;;20.00;15.43;;;;;;;;;;5091468;28;20244;-70
2022/03/25 12:59:26;;;;;;;21.63;16.30;;;;;;;;;;5088424;28;20176;-70
2022/03/25 13:01:52;;;;;;;22.77;17.40;;;;;;;;;;5087981;28;20184;-70
2022/03/25 13:04:25;;;;;;;23.07;15.43;;;;;;;;;;5090455;28;20210;-71
2022/03/25 13:06:56;;;;;;;24.93;16.57;;;;;;;;;;5088487;28;20195;-70
2022/03/25 13:09:21;;;;;;;21.90;16.90;;;;;;;;;;5087093;28;20206;-70
2022/03/25 13:12:02;;;;;;;22.93;15.53;;;;;;;;;;5083673;28;20232;-70
2022/03/25 13:14:27;;;;;;;24.80;17.07;;;;;;;;;;5088180;28;20205;-70
2022/03/25 13:16:52;;;;;;;23.30;16.60;;;;;;;;;;5092105;28;20223;-70
2022/03/25 13:19:27;;;;;;;22.90;17.57;;;;;;;;;;5088045;28;20206;-70
2022/03/25 13:21:53;;;;;;;24.60;19.70;;;;;;;;;;5084806;28;20180;-70
2022/03/25 13:24:18;;;;;;;27.80;18.00;;;;;;;;;;5088730;28;20238;-70
2022/03/25 13:26:43;;;;;;;22.53;16.60;;;;;;;;;;5087280;28;20184;-71
2022/03/25 13:29:09;;;;;;;24.00;15.27;;;;;;;;;;5086172;28;20188;-70
2022/03/25 13:31:34;;;;;;;22.27;14.70;;;;;;;;;;5095743;28;20253;-70
2022/03/25 13:33:59;;;;;;;21.10;14.70;;;;;;;;;;5084942;28;20200;-71
2022/03/25 13:36:27;;;;;;;24.07;17.77;;;;;;;;;;5084925;28;20172;-70
2022/03/25 13:38:53;;;;;;;23.97;16.03;;;;;;;;;;5086931;28;20254;-70
2022/03/25 13:41:20;;;;;;;26.80;16.87;;;;;;;;;;5087149;28;20196;-70
2022/03/25 13:43:46;;;;;;;24.97;16.83;;;;;;;;;;5089870;28;20192;-70
2022/03/25 13:46:17;;;;;;;21.23;16.97;;;;;;;;;;5084686;28;21661;-70
2022/03/25 13:48:45;;;;;;;24.33;15.63;;;;;;;;;;5088105;28;20213;-70
2022/03/25 13:51:18;;;;;;;24.87;16.40;;;;;;;;;;5084326;28;20250;-70
2022/03/25 13:53:43;;;;;;;20.33;15.87;;;;;;;;;;5081511;28;20211;-70
2022/03/25 13:56:19;;;;;;;20.47;14.20;;;;;;;;;;5079829;28;20170;-70
2022/03/25 13:58:55;;;;;;;21.57;16.03;;;;;;;;;;5088596;28;20216;-70
2022/03/25 14:01:38;;;;;;;19.53;14.60;;;;;;;;;;5086552;28;20553;-71
2022/03/25 14:04:16;;;;;;;21.83;15.63;;;;;;;;;;5086440;28;20577;-71
2022/03/25 14:06:45;;;;;;;21.23;14.40;;;;;;;;;;5085374;28;20185;-70
2022/03/25 14:09:23;;;;;;;17.27;12.17;;;;;;;;;;5078116;28;22030;-71
2022/03/25 14:11:48;;;;;;;18.33;13.90;;;;;;;;;;5085814;28;20236;-71
2022/03/25 14:14:24;;;;;;;19.87;14.90;;;;;;;;;;5086636;28;20178;-70
2022/03/25 14:16:53;;;;;;;21.13;15.20;;;;;;;;;;5078663;28;20173;-70